Morse, Minnesota
Current Conditions -  °F | °C
As of 7:53 PM on Saturday 25 Oct 2014 (Local Time) from KFOZ Reporting Station
Clear Clear  
Wind Chill: 46°   Ceiling: Unl
Heat Index: 46°   Visibility: 10mi
Dew Point: 25°   Wind: 3mph
Humidity: 43%   Direction: 250°WSW
Pressure: 29.99"   Gusts: NA
Location:  47.4603°N, 94.029°W
Report Text: KFOZ 260053Z AUTO 25003KT 10SM CLR 08/M04 A2999 RMK AO2 TSNO
Loading
Personal Weather Stations






























Interactive Weather Map
Tropical Storm Tracking
New forecast layout! Learn more

10-Day Weather Forecast

Advertisements
Track Severe Weather on mobile